Hague, Virginia
Current Conditions -  °F | °C
As of 5:53 AM on Wednesday 26 Nov 2014 (Local Time) from KNUI Reporting Station
Light Rain Light Rain  
Wind Chill: 39°   Ceiling: 700
Heat Index: 45°   Visibility: 4mi
Dew Point: 40°   Wind: 13mph
Humidity: 82%   Direction: 50°NE
Pressure: 30.04"   Gusts: 20mph
Location:  38.07°N, 76.65°W
Report Text: KNUI 261053Z AUTO 05011G17KT 4SM -RA BKN007 OVC011 07/04 A3004 RMK AO2 SLP173 P0004 T00720044
Loading
Personal Weather Stations






























Interactive Weather Map New forecast layout! Learn more

10-Day Weather Forecast

Advertisements
Track Severe Weather on mobile